createdAt,value
2022-11-27T00:01:15.959Z,20.43
2022-11-27T00:03:43.876Z,19.73
2022-11-27T00:06:16.366Z,20.37
2022-11-27T00:08:44.028Z,20.47
2022-11-27T00:11:13.825Z,20.57
2022-11-27T00:13:40.892Z,18.37
2022-11-27T00:16:08.677Z,20.67
2022-11-27T00:18:36.033Z,20.83
2022-11-27T00:21:08.173Z,19.37
2022-11-27T00:23:35.470Z,19.37
2022-11-27T00:26:02.754Z,20.53
2022-11-27T00:28:29.899Z,18.97
2022-11-27T00:31:01.015Z,20.07
2022-11-27T00:33:28.456Z,19.00
2022-11-27T00:35:55.540Z,19.27
2022-11-27T00:38:22.556Z,19.87
2022-11-27T00:40:49.641Z,19.13
2022-11-27T00:43:16.474Z,20.10
2022-11-27T00:45:43.488Z,20.00
2022-11-27T00:48:10.262Z,19.23
2022-11-27T00:50:37.321Z,18.03
2022-11-27T00:53:04.060Z,18.40
2022-11-27T00:55:31.269Z,18.57
2022-11-27T00:57:58.081Z,17.90
2022-11-27T01:00:25.120Z,18.00
2022-11-27T01:02:51.918Z,18.17
2022-11-27T01:05:19.028Z,18.30
2022-11-27T01:07:45.827Z,19.63
2022-11-27T01:10:12.871Z,19.27
2022-11-27T01:12:39.714Z,20.27
2022-11-27T01:15:07.486Z,18.87
2022-11-27T01:17:34.216Z,18.40
2022-11-27T01:20:01.323Z,19.33
2022-11-27T01:22:28.108Z,17.73
2022-11-27T01:24:55.111Z,20.20
2022-11-27T01:27:21.847Z,18.57
2022-11-27T01:29:48.938Z,19.60
2022-11-27T01:32:15.771Z,18.90
2022-11-27T01:34:42.796Z,18.77
2022-11-27T01:37:09.543Z,18.90
2022-11-27T01:39:36.697Z,19.23
2022-11-27T01:42:03.502Z,18.23
2022-11-27T01:44:33.290Z,19.57
2022-11-27T01:47:07.438Z,19.27
2022-11-27T01:49:39.962Z,20.20
2022-11-27T01:52:13.417Z,18.07
2022-11-27T01:54:45.694Z,18.40
2022-11-27T01:57:22.779Z,19.33
2022-11-27T01:59:51.354Z,19.23
2022-11-27T02:02:18.332Z,19.43
2022-11-27T02:04:45.822Z,19.03
2022-11-27T02:07:12.660Z,19.37
2022-11-27T02:09:40.167Z,18.70
2022-11-27T02:12:24.979Z,17.77
2022-11-27T02:14:54.876Z,18.70
2022-11-27T02:17:44.542Z,17.93
2022-11-27T02:20:21.766Z,16.93
2022-11-27T02:23:16.466Z,19.13
2022-11-27T02:26:07.825Z,16.67
2022-11-27T02:29:00.749Z,17.27
2022-11-27T02:31:47.647Z,18.07
2022-11-27T02:34:26.551Z,17.40
2022-11-27T02:37:09.852Z,17.97
2022-11-27T02:39:53.498Z,17.97
2022-11-27T02:42:21.133Z,18.30
2022-11-27T02:44:54.147Z,17.60
2022-11-27T02:47:21.427Z,16.43
2022-11-27T02:49:50.078Z,18.00
2022-11-27T02:52:18.043Z,18.97
2022-11-27T02:54:46.474Z,17.63
2022-11-27T02:57:14.163Z,17.83
2022-11-27T02:59:42.904Z,17.83
2022-11-27T03:02:15.144Z,19.30
2022-11-27T03:04:46.784Z,18.33
2022-11-27T03:07:18.305Z,18.43
2022-11-27T03:09:50.070Z,18.70
2022-11-27T03:12:18.036Z,17.97
2022-11-27T03:14:45.778Z,18.50
2022-11-27T03:17:32.705Z,19.67
2022-11-27T03:20:14.761Z,18.13
2022-11-27T03:22:42.290Z,18.73
2022-11-27T03:25:09.165Z,19.17
2022-11-27T03:27:43.336Z,18.57
2022-11-27T03:30:11.058Z,18.83
2022-11-27T03:32:38.250Z,19.67
2022-11-27T03:35:08.731Z,19.83
2022-11-27T03:37:36.173Z,19.23
2022-11-27T03:40:06.546Z,19.90
2022-11-27T03:42:40.511Z,19.17
2022-11-27T03:45:29.287Z,18.93
2022-11-27T03:48:19.081Z,20.10
2022-11-27T03:50:59.051Z,19.33
2022-11-27T03:53:47.312Z,18.80
2022-11-27T03:56:27.398Z,20.07
2022-11-27T03:58:54.426Z,18.77
2022-11-27T04:01:23.569Z,19.40
2022-11-27T04:03:50.670Z,19.37
2022-11-27T04:06:17.571Z,20.00
2022-11-27T04:08:46.916Z,18.93
2022-11-27T04:11:14.579Z,19.60
2022-11-27T04:13:41.606Z,19.20
2022-11-27T04:16:08.690Z,18.73
2022-11-27T04:18:35.751Z,19.10
2022-11-27T04:21:04.001Z,17.37
2022-11-27T04:23:31.087Z,20.13
2022-11-27T04:25:57.869Z,19.27
2022-11-27T04:28:24.923Z,18.27
2022-11-27T04:30:53.103Z,18.93
2022-11-27T04:33:20.331Z,18.10
2022-11-27T04:35:47.110Z,19.33
2022-11-27T04:38:14.198Z,18.87
2022-11-27T04:40:41.007Z,17.63
2022-11-27T04:43:08.325Z,17.03
2022-11-27T04:45:35.228Z,16.20
2022-11-27T04:48:02.299Z,15.77
2022-11-27T04:50:29.046Z,15.33
2022-11-27T04:52:56.916Z,14.80
2022-11-27T04:55:23.839Z,16.40
2022-11-27T04:57:51.006Z,14.50
2022-11-27T05:00:18.234Z,14.10
2022-11-27T05:02:45.387Z,14.43
2022-11-27T05:05:12.290Z,15.27
2022-11-27T05:07:39.401Z,14.47
2022-11-27T05:10:06.807Z,15.53
2022-11-27T05:12:34.132Z,15.10
2022-11-27T05:15:04.373Z,15.97
2022-11-27T05:17:31.990Z,14.67
2022-11-27T05:19:59.475Z,15.87
2022-11-27T05:22:26.496Z,16.10
2022-11-27T05:24:53.288Z,15.87
2022-11-27T05:27:20.307Z,16.17
2022-11-27T05:29:47.128Z,16.07
2022-11-27T05:32:14.408Z,16.47
2022-11-27T05:34:41.390Z,15.43
2022-11-27T05:37:08.713Z,15.30
2022-11-27T05:39:35.613Z,16.40
2022-11-27T05:42:02.675Z,15.63
2022-11-27T05:44:29.475Z,15.33
2022-11-27T05:46:57.326Z,17.07
2022-11-27T05:49:24.188Z,16.10
2022-11-27T05:51:51.901Z,16.60
2022-11-27T05:54:19.107Z,16.07
2022-11-27T05:56:46.208Z,17.50
2022-11-27T05:59:13.140Z,16.13
2022-11-27T06:01:40.202Z,16.07
2022-11-27T06:04:06.972Z,17.73
2022-11-27T06:06:33.989Z,18.03
2022-11-27T06:09:00.723Z,19.53
2022-11-27T06:11:27.859Z,18.47
2022-11-27T06:13:54.600Z,18.47
2022-11-27T06:16:23.605Z,18.07
2022-11-27T06:18:52.347Z,19.23
2022-11-27T06:21:20.587Z,20.17
2022-11-27T06:23:47.451Z,19.70
2022-11-27T06:26:19.751Z,19.93
2022-11-27T06:28:47.773Z,19.37
2022-11-27T06:31:18.606Z,18.33
2022-11-27T06:33:46.602Z,17.97
2022-11-27T06:36:13.728Z,19.10
2022-11-27T06:38:40.646Z,17.70
2022-11-27T06:41:12.967Z,18.07
2022-11-27T06:43:39.863Z,17.33
2022-11-27T06:46:09.474Z,19.23
2022-11-27T06:48:36.327Z,19.47
2022-11-27T06:51:05.628Z,22.70
2022-11-27T06:53:34.542Z,17.70
2022-11-27T06:56:12.390Z,16.90
2022-11-27T06:58:39.492Z,17.70
2022-11-27T07:01:10.368Z,23.03
2022-11-27T07:03:37.223Z,16.70
2022-11-27T07:06:06.809Z,16.80
2022-11-27T07:08:34.377Z,17.07
2022-11-27T07:11:06.531Z,19.07
2022-11-27T07:13:33.613Z,23.13
2022-11-27T07:16:01.944Z,21.10
2022-11-27T07:18:29.974Z,26.10
2022-11-27T07:20:57.085Z,21.37
2022-11-27T07:23:23.972Z,22.80
2022-11-27T07:25:51.091Z,17.83
2022-11-27T07:28:19.278Z,18.00
2022-11-27T07:30:46.488Z,17.57
2022-11-27T07:33:13.343Z,19.00
2022-11-27T07:35:40.689Z,20.53
2022-11-27T07:38:07.505Z,21.13
2022-11-27T07:40:34.525Z,17.77
2022-11-27T07:43:01.247Z,18.47
2022-11-27T07:45:28.694Z,17.23
2022-11-27T07:47:55.610Z,18.13
2022-11-27T07:50:22.786Z,19.73
2022-11-27T07:52:49.688Z,22.80
2022-11-27T07:55:16.728Z,20.70
2022-11-27T07:57:43.551Z,19.83
2022-11-27T08:00:11.416Z,19.67
2022-11-27T08:02:38.422Z,19.83
2022-11-27T08:05:12.113Z,20.80
2022-11-27T08:07:39.687Z,18.80
2022-11-27T08:10:07.569Z,18.90
2022-11-27T08:12:34.342Z,19.53
2022-11-27T08:15:01.594Z,20.67
2022-11-27T08:17:28.459Z,19.23
2022-11-27T08:19:55.499Z,17.93
2022-11-27T08:22:22.284Z,18.87
2022-11-27T08:24:51.620Z,20.83
2022-11-27T08:27:18.666Z,19.17
2022-11-27T08:29:45.743Z,18.37
2022-11-27T08:32:12.636Z,18.30
2022-11-27T08:34:40.070Z,18.87
2022-11-27T08:37:07.384Z,17.87
2022-11-27T08:39:34.413Z,18.23
2022-11-27T08:42:01.323Z,18.43
2022-11-27T08:44:28.344Z,17.87
2022-11-27T08:46:55.107Z,17.73
2022-11-27T08:49:22.160Z,19.43
2022-11-27T08:51:48.951Z,19.17
2022-11-27T08:54:16.241Z,18.83
2022-11-27T08:56:43.120Z,19.53
2022-11-27T08:59:10.484Z,18.73
2022-11-27T09:01:37.356Z,19.87
2022-11-27T09:04:04.759Z,19.47
2022-11-27T09:06:34.742Z,18.63
2022-11-27T09:09:04.507Z,18.37
2022-11-27T09:11:32.143Z,19.03
2022-11-27T09:14:00.512Z,18.53
2022-11-27T09:16:28.218Z,18.53
2022-11-27T09:18:55.618Z,18.00
2022-11-27T09:21:27.206Z,18.30
2022-11-27T09:23:55.418Z,16.93
2022-11-27T09:26:23.935Z,17.50
2022-11-27T09:28:52.363Z,17.63
2022-11-27T09:31:20.726Z,19.80
2022-11-27T09:33:47.850Z,22.83
2022-11-27T09:36:23.239Z,21.00
2022-11-27T09:38:50.690Z,20.43
2022-11-27T09:41:51.356Z,27.37
2022-11-27T09:44:29.800Z,21.43
2022-11-27T09:47:01.123Z,22.13
2022-11-27T09:49:36.791Z,23.93
2022-11-27T09:52:13.769Z,24.00
2022-11-27T09:54:56.500Z,20.77
2022-11-27T09:57:33.666Z,22.00
2022-11-27T10:00:12.412Z,17.03
2022-11-27T10:02:41.864Z,16.47
2022-11-27T10:05:21.879Z,16.93
2022-11-27T10:07:51.898Z,17.70
2022-11-27T10:10:57.017Z,17.03
2022-11-27T10:13:41.371Z,19.70
2022-11-27T10:16:22.520Z,20.70
2022-11-27T10:18:59.618Z,16.97
2022-11-27T10:21:41.830Z,16.37
2022-11-27T10:24:27.024Z,16.50
2022-11-27T10:26:57.402Z,14.67
2022-11-27T10:29:33.811Z,15.33
2022-11-27T10:32:05.449Z,15.07
2022-11-27T10:34:48.532Z,15.03
2022-11-27T10:37:24.047Z,14.80
2022-11-27T10:40:05.952Z,16.40
2022-11-27T10:42:36.167Z,16.13
2022-11-27T10:45:07.324Z,12.90
2022-11-27T10:47:34.728Z,15.63
2022-11-27T10:50:02.001Z,17.00
2022-11-27T10:52:29.219Z,14.90
2022-11-27T10:55:03.587Z,15.53
2022-11-27T10:58:04.087Z,16.33
2022-11-27T11:00:30.955Z,15.13
2022-11-27T11:03:05.776Z,16.73
2022-11-27T11:05:56.837Z,16.57
2022-11-27T11:08:22.248Z,14.63
2022-11-27T11:10:57.402Z,17.40
2022-11-27T11:13:29.003Z,19.90
2022-11-27T11:16:06.977Z,22.60
2022-11-27T11:18:42.619Z,16.77
2022-11-27T11:21:27.460Z,17.80
2022-11-27T11:24:07.124Z,16.77
2022-11-27T11:26:37.850Z,16.60
2022-11-27T11:29:07.246Z,15.00
2022-11-27T11:31:37.560Z,14.13
2022-11-27T11:34:14.454Z,14.43
2022-11-27T11:36:41.478Z,14.90
2022-11-27T11:39:20.693Z,23.83
2022-11-27T11:41:47.554Z,27.83
2022-11-27T11:44:23.856Z,15.50
2022-11-27T11:46:52.787Z,15.37
2022-11-27T11:49:27.637Z,15.57
2022-11-27T11:52:09.510Z,16.27
2022-11-27T11:55:00.648Z,15.37
2022-11-27T11:57:33.180Z,15.03
2022-11-27T12:00:12.037Z,14.77
2022-11-27T12:02:59.060Z,14.93
2022-11-27T12:05:35.153Z,14.73
2022-11-27T12:08:39.799Z,15.43
2022-11-27T12:11:16.269Z,20.33
2022-11-27T12:13:53.306Z,14.37
2022-11-27T12:16:34.250Z,14.93
2022-11-27T12:19:31.253Z,15.20
2022-11-27T12:22:06.570Z,15.30
2022-11-27T12:24:48.724Z,16.20
2022-11-27T12:27:45.186Z,16.00
2022-11-27T12:30:21.280Z,13.73
2022-11-27T12:33:09.971Z,14.57
2022-11-27T12:35:53.297Z,13.23
2022-11-27T12:38:42.523Z,12.53
2022-11-27T12:41:32.718Z,26.37
2022-11-27T12:44:02.568Z,16.80
2022-11-27T12:46:49.889Z,13.80
2022-11-27T12:49:46.377Z,19.53
2022-11-27T12:52:19.573Z,14.00
2022-11-27T12:54:54.563Z,14.60
2022-11-27T12:57:40.040Z,15.40
2022-11-27T13:00:24.329Z,14.73
2022-11-27T13:03:03.279Z,13.03
2022-11-27T13:05:35.018Z,15.93
2022-11-27T13:08:06.430Z,13.60
2022-11-27T13:10:52.672Z,19.33
2022-11-27T13:13:34.722Z,18.23
2022-11-27T13:16:25.308Z,17.17
2022-11-27T13:18:56.537Z,13.83
2022-11-27T13:21:27.504Z,13.53
2022-11-27T13:23:54.585Z,14.13
2022-11-27T13:26:27.460Z,14.80
2022-11-27T13:28:59.628Z,13.97
2022-11-27T13:31:31.716Z,14.47
2022-11-27T13:34:00.963Z,13.87
2022-11-27T13:36:36.061Z,14.13
2022-11-27T13:39:03.400Z,21.60
2022-11-27T13:41:43.774Z,18.80
2022-11-27T13:44:25.546Z,14.83
2022-11-27T13:46:54.955Z,14.87
2022-11-27T13:49:33.386Z,15.90
2022-11-27T13:52:14.663Z,15.90
2022-11-27T13:54:58.542Z,16.80
2022-11-27T13:57:26.633Z,18.83
2022-11-27T14:00:07.249Z,19.33
2022-11-27T14:02:44.733Z,20.60
2022-11-27T14:05:13.032Z,71.90
2022-11-27T14:07:59.461Z,126.40
2022-11-27T14:10:28.999Z,34.83
2022-11-27T14:13:06.451Z,27.33
2022-11-27T14:15:35.565Z,25.33
2022-11-27T14:18:13.877Z,22.03
2022-11-27T14:20:52.059Z,22.00
2022-11-27T14:23:33.755Z,24.57
2022-11-27T14:26:21.774Z,22.77
2022-11-27T14:28:51.691Z,23.53
2022-11-27T14:31:23.253Z,19.90
2022-11-27T14:34:14.431Z,17.73
2022-11-27T14:36:37.231Z,22.33
2022-11-27T14:39:05.155Z,33.00
2022-11-27T14:41:32.030Z,25.63
2022-11-27T14:44:04.927Z,22.20
2022-11-27T14:46:33.056Z,25.47
2022-11-27T14:49:00.171Z,19.63
2022-11-27T14:51:29.172Z,21.17
2022-11-27T14:54:01.846Z,18.90
2022-11-27T14:56:34.214Z,20.03
2022-11-27T14:59:01.856Z,25.67
2022-11-27T15:01:31.038Z,26.00
2022-11-27T15:04:37.032Z,26.03
2022-11-27T15:07:18.870Z,20.93
2022-11-27T15:09:48.817Z,27.77
2022-11-27T15:12:22.195Z,19.43
2022-11-27T15:14:59.034Z,21.87
2022-11-27T15:17:31.152Z,22.53
2022-11-27T15:19:59.231Z,27.37
2022-11-27T15:22:26.138Z,75.90
2022-11-27T15:25:07.373Z,35.43
2022-11-27T15:27:46.210Z,33.20
2022-11-27T15:30:17.603Z,27.63
2022-11-27T15:32:52.838Z,29.60
2022-11-27T15:35:28.597Z,37.23
2022-11-27T15:38:04.517Z,55.27
2022-11-27T15:40:39.865Z,51.57
2022-11-27T15:43:14.537Z,43.23
2022-11-27T15:45:43.491Z,45.30
2022-11-27T15:48:15.860Z,44.27
2022-11-27T15:50:48.231Z,56.10
2022-11-27T15:53:18.106Z,38.17
2022-11-27T15:55:45.147Z,36.27
2022-11-27T15:58:11.952Z,37.33
2022-11-27T16:00:39.871Z,28.13
2022-11-27T16:03:06.694Z,27.70
2022-11-27T16:05:33.807Z,38.27
2022-11-27T16:08:00.892Z,450.03
2022-11-27T16:10:28.057Z,638.10
2022-11-27T16:12:55.448Z,569.40
2022-11-27T16:15:23.348Z,151.03
2022-11-27T16:17:51.819Z,49.57
2022-11-27T16:20:18.922Z,36.07
2022-11-27T16:22:45.640Z,30.57
2022-11-27T16:25:16.726Z,62.40
2022-11-27T16:27:43.544Z,37.27
2022-11-27T16:30:12.414Z,51.03
2022-11-27T16:32:40.090Z,792.93
2022-11-27T16:35:08.494Z,915.30
2022-11-27T16:37:35.333Z,137.50
2022-11-27T16:40:03.759Z,93.10
2022-11-27T16:42:30.775Z,118.00
2022-11-27T16:44:57.939Z,68.63
2022-11-27T16:47:30.600Z,78.57
2022-11-27T16:50:01.077Z,800.87
2022-11-27T16:52:28.664Z,831.27
2022-11-27T16:54:56.603Z,821.13
2022-11-27T16:57:23.711Z,202.03
2022-11-27T16:59:50.930Z,155.47
2022-11-27T17:02:19.276Z,175.37
2022-11-27T17:04:46.523Z,86.43
2022-11-27T17:07:13.333Z,97.27
2022-11-27T17:09:42.251Z,99.17
2022-11-27T17:12:08.996Z,129.20
2022-11-27T17:14:36.997Z,165.97
2022-11-27T17:17:05.697Z,70.80
2022-11-27T17:19:34.201Z,78.60
2022-11-27T17:22:01.905Z,87.73
2022-11-27T17:24:29.905Z,77.87
2022-11-27T17:26:56.738Z,70.07
2022-11-27T17:29:33.561Z,100.30
2022-11-27T17:32:02.553Z,111.97
2022-11-27T17:34:29.750Z,80.63
2022-11-27T17:36:57.614Z,49.43
2022-11-27T17:39:25.131Z,65.67
2022-11-27T17:41:51.975Z,124.03
2022-11-27T17:44:19.271Z,234.17
2022-11-27T17:46:49.984Z,989.90
2022-11-27T17:49:19.532Z,427.80
2022-11-27T17:51:46.829Z,107.37
2022-11-27T17:54:14.665Z,78.30
2022-11-27T17:56:41.519Z,82.03
2022-11-27T17:59:09.975Z,83.07
2022-11-27T18:01:37.217Z,61.17
2022-11-27T18:04:05.505Z,30.17
2022-11-27T18:06:33.418Z,27.83
2022-11-27T18:09:00.638Z,25.17
2022-11-27T18:11:30.158Z,51.33
2022-11-27T18:13:59.836Z,50.37
2022-11-27T18:16:31.021Z,78.90
2022-11-27T18:18:59.066Z,114.17
2022-11-27T18:21:30.382Z,41.43
2022-11-27T18:24:22.677Z,30.93
2022-11-27T18:27:07.172Z,27.43
2022-11-27T18:29:31.772Z,23.53
2022-11-27T18:31:58.622Z,24.00
2022-11-27T18:34:25.793Z,47.87
2022-11-27T18:36:57.195Z,38.07
2022-11-27T18:39:24.345Z,48.07
2022-11-27T18:41:51.451Z,28.93
2022-11-27T18:44:18.627Z,25.80
2022-11-27T18:46:45.622Z,24.53
2022-11-27T18:49:13.066Z,36.07
2022-11-27T18:51:40.738Z,36.17
2022-11-27T18:54:08.583Z,34.57
2022-11-27T18:56:37.124Z,28.60
2022-11-27T18:59:06.059Z,24.37
2022-11-27T19:01:41.475Z,25.97
2022-11-27T19:04:10.913Z,23.07
2022-11-27T19:06:38.834Z,26.60
2022-11-27T19:09:06.256Z,26.10
2022-11-27T19:11:34.129Z,25.40
2022-11-27T19:14:01.779Z,26.87
2022-11-27T19:16:31.803Z,26.53
2022-11-27T19:19:00.848Z,31.20
2022-11-27T19:21:30.001Z,36.50
2022-11-27T19:23:58.654Z,36.07
2022-11-27T19:26:29.582Z,29.97
2022-11-27T19:28:58.506Z,31.83
2022-11-27T19:31:25.964Z,25.97
2022-11-27T19:33:55.377Z,27.77
2022-11-27T19:36:23.055Z,25.97
2022-11-27T19:38:55.325Z,26.47
2022-11-27T19:41:23.255Z,53.40
2022-11-27T19:43:50.728Z,154.20
2022-11-27T19:46:28.952Z,100.43
2022-11-27T19:48:58.168Z,194.90
2022-11-27T19:51:26.346Z,103.20
2022-11-27T19:53:53.848Z,114.67
2022-11-27T19:56:20.819Z,71.53
2022-11-27T19:58:47.960Z,57.13
2022-11-27T20:01:17.191Z,51.47
2022-11-27T20:03:45.172Z,47.47
2022-11-27T20:06:15.147Z,38.30
2022-11-27T20:08:43.226Z,32.63
2022-11-27T20:11:12.882Z,31.00
2022-11-27T20:13:40.071Z,29.93
2022-11-27T20:16:08.781Z,30.37
2022-11-27T20:18:36.192Z,32.87
2022-11-27T20:21:08.469Z,78.80
2022-11-27T20:23:35.959Z,77.70
2022-11-27T20:26:05.506Z,50.63
2022-11-27T20:28:33.203Z,38.40
2022-11-27T20:31:02.994Z,41.73
2022-11-27T20:33:31.936Z,39.50
2022-11-27T20:35:58.769Z,37.63
2022-11-27T20:38:26.686Z,30.67
2022-11-27T20:40:53.543Z,29.40
2022-11-27T20:43:20.984Z,30.43
2022-11-27T20:45:51.684Z,35.67
2022-11-27T20:48:19.070Z,37.17
2022-11-27T20:50:51.327Z,48.63
2022-11-27T20:53:19.739Z,143.00
2022-11-27T20:55:47.436Z,216.80
2022-11-27T20:58:14.539Z,48.50
2022-11-27T21:00:41.669Z,38.53
2022-11-27T21:03:08.773Z,39.80
2022-11-27T21:05:35.520Z,39.37
2022-11-27T21:08:03.191Z,36.67
2022-11-27T21:10:29.965Z,41.67
2022-11-27T21:12:57.322Z,38.47
2022-11-27T21:15:24.115Z,36.00
2022-11-27T21:17:51.190Z,48.60
2022-11-27T21:20:18.612Z,34.73
2022-11-27T21:22:45.844Z,39.00
2022-11-27T21:25:13.303Z,37.53
2022-11-27T21:27:40.442Z,38.07
2022-11-27T21:30:07.741Z,34.97
2022-11-27T21:32:34.903Z,39.47
2022-11-27T21:35:01.836Z,34.37
2022-11-27T21:37:28.884Z,35.03
2022-11-27T21:39:56.440Z,35.30
2022-11-27T21:42:24.201Z,35.20
2022-11-27T21:44:51.656Z,36.37
2022-11-27T21:47:19.527Z,43.07
2022-11-27T21:49:49.760Z,36.80
2022-11-27T21:52:18.079Z,39.50
2022-11-27T21:54:45.062Z,35.37
2022-11-27T21:57:13.790Z,36.93
2022-11-27T21:59:42.463Z,41.70
2022-11-27T22:02:11.893Z,40.23
2022-11-27T22:04:38.771Z,40.90
2022-11-27T22:07:07.829Z,42.67
2022-11-27T22:09:34.634Z,40.40
2022-11-27T22:12:01.929Z,42.47
2022-11-27T22:14:28.918Z,41.80
2022-11-27T22:16:57.095Z,60.50
2022-11-27T22:19:24.032Z,46.33
2022-11-27T22:21:51.161Z,42.80
2022-11-27T22:24:19.912Z,40.00
2022-11-27T22:26:51.217Z,43.47
2022-11-27T22:29:18.024Z,69.23
2022-11-27T22:31:45.855Z,48.37
2022-11-27T22:34:16.091Z,42.47
2022-11-27T22:36:43.842Z,39.93
2022-11-27T22:39:10.716Z,41.27
2022-11-27T22:41:39.446Z,41.87
2022-11-27T22:44:11.576Z,41.50
2022-11-27T22:46:40.465Z,48.60
2022-11-27T22:49:07.569Z,45.30
2022-11-27T22:51:35.830Z,47.90
2022-11-27T22:54:03.873Z,42.20
2022-11-27T22:56:33.625Z,43.63
2022-11-27T22:59:30.523Z,43.40
2022-11-27T23:01:48.862Z,42.53
2022-11-27T23:04:16.672Z,42.00
2022-11-27T23:06:48.025Z,43.03
2022-11-27T23:09:16.423Z,44.13
2022-11-27T23:11:43.463Z,44.57
2022-11-27T23:14:10.247Z,44.80
2022-11-27T23:16:38.534Z,48.03
2022-11-27T23:19:05.408Z,45.83
2022-11-27T23:21:35.296Z,43.73
2022-11-27T23:24:02.046Z,45.27
2022-11-27T23:26:29.222Z,46.60
2022-11-27T23:28:56.234Z,45.97
2022-11-27T23:31:30.411Z,46.07
2022-11-27T23:33:58.500Z,45.43
2022-11-27T23:36:25.807Z,45.50
2022-11-27T23:38:52.740Z,43.37
2022-11-27T23:41:22.549Z,44.87
2022-11-27T23:43:50.051Z,46.30
2022-11-27T23:46:19.292Z,46.07
2022-11-27T23:48:46.289Z,46.17
2022-11-27T23:51:18.976Z,45.10
2022-11-27T23:53:46.013Z,45.63
2022-11-27T23:56:19.491Z,45.97
2022-11-27T23:58:47.539Z,45.43
